createdAt,value
2022-10-06T04:00:49.634Z,4.10
2022-10-06T04:05:01.355Z,3.15
2022-10-06T04:09:15.951Z,1.65
2022-10-06T04:13:28.313Z,3.05
2022-10-06T04:17:39.885Z,1.60
2022-10-06T04:21:51.486Z,4.38
2022-10-06T04:26:10.438Z,2.83
2022-10-06T04:30:22.318Z,2.80
2022-10-06T04:34:34.357Z,7.47
2022-10-06T04:38:45.917Z,3.88
2022-10-06T04:42:57.695Z,2.92
2022-10-06T04:47:09.324Z,5.20
2022-10-06T04:51:22.638Z,4.85
2022-10-06T04:55:34.320Z,6.80
2022-10-06T05:00:08.832Z,6.43
2022-10-06T05:04:24.063Z,3.30
2022-10-06T05:08:36.066Z,4.78
2022-10-06T05:12:47.714Z,6.93
2022-10-06T05:16:59.764Z,3.75
2022-10-06T05:21:20.564Z,4.45
2022-10-06T05:25:33.208Z,5.95
2022-10-06T05:29:44.832Z,5.35
2022-10-06T05:33:58.353Z,3.92
2022-10-06T05:38:11.678Z,3.60
2022-10-06T05:42:28.740Z,9.18
2022-10-06T05:46:41.281Z,2.92
2022-10-06T05:51:08.141Z,3.70
2022-10-06T05:55:21.961Z,4.20
2022-10-06T05:59:33.789Z,3.38
2022-10-06T06:03:49.746Z,3.17
2022-10-06T06:08:01.690Z,4.80
2022-10-06T06:12:14.216Z,4.40
2022-10-06T06:16:35.837Z,5.28
2022-10-06T06:20:58.042Z,3.35
2022-10-06T06:25:10.282Z,6.70
2022-10-06T06:29:23.157Z,3.55
2022-10-06T06:33:37.689Z,4.07
2022-10-06T06:37:50.137Z,5.78
2022-10-06T06:42:02.106Z,5.80
2022-10-06T06:46:25.265Z,4.63
2022-10-06T06:50:44.062Z,6.90
2022-10-06T06:54:57.065Z,3.38
2022-10-06T06:59:11.793Z,7.35
2022-10-06T07:03:52.595Z,4.60
2022-10-06T07:07:58.027Z,4.68
2022-10-06T07:12:11.413Z,6.43
2022-10-06T07:16:45.512Z,6.68
2022-10-06T07:21:16.059Z,4.82
2022-10-06T07:25:27.822Z,6.75
2022-10-06T07:29:42.197Z,4.47
2022-10-06T07:33:53.910Z,4.65
2022-10-06T07:38:07.935Z,5.20
2022-10-06T07:42:24.468Z,7.30
2022-10-06T07:46:35.989Z,4.68
2022-10-06T07:50:52.680Z,6.65
2022-10-06T07:55:17.319Z,8.55
2022-10-06T07:59:52.753Z,6.43
2022-10-06T08:04:06.655Z,4.50
2022-10-06T08:08:18.695Z,4.40
2022-10-06T08:12:33.061Z,6.53
2022-10-06T08:16:44.789Z,4.15
2022-10-06T08:20:56.350Z,6.65
2022-10-06T08:25:10.172Z,6.13
2022-10-06T08:29:22.175Z,8.05
2022-10-06T08:33:35.884Z,3.83
2022-10-06T08:37:48.538Z,6.78
2022-10-06T08:42:00.051Z,3.20
2022-10-06T08:46:14.530Z,4.07
2022-10-06T08:50:29.161Z,4.13
2022-10-06T08:54:58.780Z,7.00
2022-10-06T08:59:10.582Z,9.35
2022-10-06T09:03:28.457Z,5.88
2022-10-06T09:07:58.180Z,4.85
2022-10-06T09:12:30.912Z,4.93
2022-10-06T09:16:48.358Z,4.88
2022-10-06T09:21:23.558Z,4.50
2022-10-06T09:25:41.028Z,4.63
2022-10-06T09:29:53.234Z,3.35
2022-10-06T09:34:37.465Z,3.78
2022-10-06T09:38:55.157Z,5.38
2022-10-06T09:43:38.775Z,2.45
2022-10-06T09:47:50.394Z,4.32
2022-10-06T09:52:18.341Z,5.18
2022-10-06T09:56:31.881Z,2.85
2022-10-06T10:00:56.874Z,4.53
2022-10-06T10:05:21.264Z,6.88
2022-10-06T10:09:32.793Z,2.80
2022-10-06T10:13:44.350Z,3.55
2022-10-06T10:18:12.792Z,6.07
2022-10-06T10:22:38.030Z,3.25
2022-10-06T10:27:14.473Z,6.03
2022-10-06T10:31:50.624Z,7.03
2022-10-06T10:36:05.278Z,4.43
2022-10-06T10:40:32.772Z,6.65
2022-10-06T10:44:55.263Z,4.03
2022-10-06T10:49:18.209Z,3.10
2022-10-06T10:53:47.146Z,2.60
2022-10-06T10:58:05.922Z,8.05
2022-10-06T11:02:21.051Z,5.30
2022-10-06T11:06:53.782Z,4.85
2022-10-06T11:11:20.143Z,3.33
2022-10-06T11:16:05.108Z,4.35
2022-10-06T11:20:38.990Z,4.15
2022-10-06T11:29:34.914Z,4.10
2022-10-06T11:33:54.881Z,3.00
2022-10-06T11:38:16.126Z,5.38
2022-10-06T11:42:53.861Z,2.10
2022-10-06T11:47:14.769Z,2.50
2022-10-06T11:51:28.284Z,2.53
2022-10-06T11:55:39.756Z,1.92
2022-10-06T11:59:53.757Z,2.42
2022-10-06T12:04:14.326Z,1.83
2022-10-06T12:08:40.132Z,2.28
2022-10-06T12:13:13.923Z,3.83
2022-10-06T12:17:32.433Z,1.58
2022-10-06T12:22:12.459Z,2.38
2022-10-06T12:26:31.748Z,5.45
2022-10-06T12:31:07.104Z,6.88
2022-10-06T12:35:32.459Z,4.65
2022-10-06T12:39:44.204Z,1.27
2022-10-06T12:43:57.258Z,4.00
2022-10-06T12:48:18.290Z,2.20
2022-10-06T12:52:53.712Z,3.28
2022-10-06T12:57:28.379Z,2.72
2022-10-06T13:01:40.150Z,3.00
2022-10-06T13:05:55.798Z,3.75
2022-10-06T13:10:13.644Z,4.65
2022-10-06T13:14:25.154Z,3.80
2022-10-06T13:18:36.732Z,4.45
2022-10-06T13:23:07.526Z,3.65
2022-10-06T13:27:21.841Z,5.03
2022-10-06T13:31:36.557Z,3.83
2022-10-06T13:35:54.257Z,7.15
2022-10-06T13:40:21.951Z,4.03
2022-10-06T13:44:59.107Z,3.58
2022-10-06T13:49:49.824Z,2.80
2022-10-06T13:54:06.733Z,3.70
2022-10-06T13:58:19.446Z,2.95
2022-10-06T14:02:35.045Z,4.63
2022-10-06T14:06:55.990Z,3.63
2022-10-06T14:11:08.726Z,2.45
2022-10-06T14:15:24.081Z,3.22
2022-10-06T14:19:38.772Z,4.72
2022-10-06T14:23:54.781Z,3.28
2022-10-06T14:28:06.836Z,3.05
2022-10-06T14:32:18.741Z,2.80
2022-10-06T14:36:32.985Z,2.38
2022-10-06T14:40:44.550Z,3.45
2022-10-06T14:44:56.412Z,3.78
2022-10-06T14:49:09.903Z,4.97
2022-10-06T14:53:21.405Z,3.17
2022-10-06T14:57:35.540Z,2.92
2022-10-06T15:01:49.359Z,1.95
2022-10-06T15:06:21.930Z,2.63
2022-10-06T15:10:33.546Z,3.75
2022-10-06T15:14:45.116Z,5.25
2022-10-06T15:18:59.048Z,3.50
2022-10-06T15:23:10.994Z,5.25
2022-10-06T15:31:53.126Z,4.78
2022-10-06T15:36:33.398Z,2.35
2022-10-06T15:40:44.890Z,4.53
2022-10-06T15:44:56.373Z,2.97
2022-10-06T15:49:12.983Z,4.10
2022-10-06T15:53:24.456Z,5.57
2022-10-06T15:57:36.143Z,3.88
2022-10-06T16:01:48.069Z,6.15
2022-10-06T16:06:00.628Z,5.13
2022-10-06T16:10:13.431Z,3.50
2022-10-06T16:14:26.262Z,5.95
2022-10-06T16:18:37.768Z,5.72
2022-10-06T16:22:49.439Z,3.95
2022-10-06T16:27:01.183Z,2.92
2022-10-06T16:31:12.687Z,4.53
2022-10-06T16:35:24.214Z,3.35
2022-10-06T16:39:35.691Z,3.30
2022-10-06T16:43:49.335Z,4.95
2022-10-06T16:48:00.851Z,8.75
2022-10-06T16:52:12.346Z,11.95
2022-10-06T16:56:26.657Z,17.10
2022-10-06T17:00:38.335Z,14.25
2022-10-06T17:04:49.901Z,19.02
2022-10-06T17:09:01.650Z,21.10
2022-10-06T17:13:13.124Z,20.85
2022-10-06T17:17:24.615Z,14.13
2022-10-06T17:21:57.424Z,8.05
2022-10-06T17:26:23.190Z,5.10
2022-10-06T17:30:34.648Z,7.95
2022-10-06T17:34:46.125Z,11.68
2022-10-06T17:39:02.758Z,19.13
2022-10-06T17:43:14.253Z,13.70
2022-10-06T17:47:26.476Z,7.60
2022-10-06T17:51:40.706Z,8.43
2022-10-06T17:55:54.577Z,6.28
2022-10-06T18:00:07.404Z,7.13
2022-10-06T18:04:23.718Z,4.35
2022-10-06T18:08:35.213Z,10.85
2022-10-06T18:12:46.687Z,37.47
2022-10-06T18:17:00.763Z,13.40
2022-10-06T18:21:13.473Z,12.68
2022-10-06T18:25:26.970Z,7.90
2022-10-06T18:29:38.770Z,10.40
2022-10-06T18:38:26.176Z,7.72
2022-10-06T18:42:38.982Z,4.75
2022-10-06T18:47:09.512Z,6.60
2022-10-06T18:51:27.195Z,5.88
2022-10-06T18:55:38.665Z,8.32
2022-10-06T18:59:50.138Z,8.15
2022-10-06T19:04:03.559Z,6.32
2022-10-06T19:08:15.030Z,5.18
2022-10-06T19:12:26.576Z,7.53
2022-10-06T19:16:38.075Z,7.53
2022-10-06T19:20:52.539Z,6.22
2022-10-06T19:25:04.229Z,4.07
2022-10-06T19:29:16.570Z,6.28
2022-10-06T19:33:29.728Z,9.02
2022-10-06T19:37:41.673Z,11.90
2022-10-06T19:42:12.495Z,7.57
2022-10-06T19:46:24.058Z,9.63
2022-10-06T19:50:35.866Z,7.82
2022-10-06T19:54:47.366Z,7.90
2022-10-06T19:59:01.288Z,5.30
2022-10-06T20:03:12.764Z,6.22
2022-10-06T20:07:27.811Z,5.63
2022-10-06T20:11:43.598Z,9.68
2022-10-06T20:15:55.075Z,10.68
2022-10-06T20:20:06.938Z,7.45
2022-10-06T20:24:22.568Z,8.27
2022-10-06T20:28:34.516Z,7.18
2022-10-06T20:32:46.072Z,9.40
2022-10-06T20:37:02.768Z,9.40
2022-10-06T20:41:17.835Z,17.10
2022-10-06T20:45:30.033Z,11.93
2022-10-06T20:49:44.520Z,5.38
2022-10-06T20:53:56.063Z,6.95
2022-10-06T20:58:08.030Z,9.15
2022-10-06T21:02:19.755Z,7.13
2022-10-06T21:06:31.892Z,9.25
2022-10-06T21:10:43.596Z,11.75
2022-10-06T21:14:57.036Z,8.38
2022-10-06T21:19:16.807Z,9.43
2022-10-06T21:23:29.635Z,6.85
2022-10-06T21:27:41.654Z,7.70
